CRL910D HTKJ-HKMO
Flight info
| Callsign | CRL910D |
|---|---|
| Flight time | 0h 35m |
| Altitude | 21000 |
| Route | OKNE2D OKNES ASOLE GADLA GADL3A |
| Aircraft | B742/H-VGDW/C |
Departure
| Time | 2026-05-04 03:13 |
|---|---|
| Airport | Kilimanjaro International Airport (HTKJ) |
Arrival
| Time | 2026-05-04 03:48 |
|---|---|
| Airport | Moi International Airport (HKMO) |
| Time | Latitude | Longitude | Altitude | Speed | Heading |
|---|---|---|---|---|---|
| 2026-05-04 02:54 | -3.42520 | 37.06482 | 2951 ft | 0 kts | 172° |
| 2026-05-04 03:07 | -3.42522 | 37.06482 | 2952 ft | 0 kts | 172° |
| 2026-05-04 03:07 | -3.42531 | 37.06484 | 2952 ft | 2 kts | 172° |
| 2026-05-04 03:07 | -3.42560 | 37.06484 | 2953 ft | 5 kts | 197° |
| 2026-05-04 03:07 | -3.42601 | 37.06469 | 2953 ft | 6 kts | 201° |
| 2026-05-04 03:08 | -3.42647 | 37.06459 | 2952 ft | 7 kts | 177° |
| 2026-05-04 03:08 | -3.42692 | 37.06461 | 2951 ft | 5 kts | 180° |
| 2026-05-04 03:08 | -3.42721 | 37.06439 | 2951 ft | 5 kts | 246° |
| 2026-05-04 03:08 | -3.42729 | 37.06397 | 2951 ft | 7 kts | 264° |
| 2026-05-04 03:09 | -3.42733 | 37.06342 | 2951 ft | 8 kts | 266° |
| 2026-05-04 03:09 | -3.42737 | 37.06276 | 2951 ft | 10 kts | 267° |
| 2026-05-04 03:09 | -3.42740 | 37.06200 | 2950 ft | 11 kts | 268° |
| 2026-05-04 03:09 | -3.42742 | 37.06113 | 2950 ft | 13 kts | 268° |
| 2026-05-04 03:10 | -3.42746 | 37.06014 | 2950 ft | 14 kts | 267° |
| 2026-05-04 03:10 | -3.42756 | 37.05907 | 2950 ft | 15 kts | 254° |
| 2026-05-04 03:10 | -3.42831 | 37.05838 | 2949 ft | 15 kts | 188° |
| 2026-05-04 03:10 | -3.42930 | 37.05843 | 2949 ft | 13 kts | 174° |
| 2026-05-04 03:11 | -3.43005 | 37.05877 | 2948 ft | 11 kts | 114° |
| 2026-05-04 03:11 | -3.43009 | 37.05918 | 2947 ft | 0 kts | 87° |
| 2026-05-04 03:11 | -3.43008 | 37.05921 | 2947 ft | 4 kts | 87° |
| 2026-05-04 03:12 | -3.42997 | 37.06150 | 2945 ft | 64 kts | 87° |
| 2026-05-04 03:12 | -3.42966 | 37.06802 | 2943 ft | 122 kts | 87° |
| 2026-05-04 03:12 | -3.42916 | 37.07815 | 2998 ft | 163 kts | 88° |
| 2026-05-04 03:12 | -3.42852 | 37.08946 | 3497 ft | 164 kts | 89° |
| 2026-05-04 03:13 | -3.42785 | 37.10093 | 3991 ft | 170 kts | 89° |
| 2026-05-04 03:13 | -3.42717 | 37.11356 | 4311 ft | 192 kts | 88° |
| 2026-05-04 03:13 | -3.42626 | 37.12745 | 4580 ft | 206 kts | 88° |
| 2026-05-04 03:13 | -3.42559 | 37.14197 | 4833 ft | 212 kts | 89° |
| 2026-05-04 03:14 | -3.42469 | 37.15736 | 4930 ft | 230 kts | 86° |
| 2026-05-04 03:14 | -3.42361 | 37.17350 | 5264 ft | 235 kts | 89° |
| 2026-05-04 03:14 | -3.42289 | 37.18998 | 5563 ft | 245 kts | 89° |
| 2026-05-04 03:14 | -3.42333 | 37.20727 | 5900 ft | 251 kts | 102° |
| 2026-05-04 03:15 | -3.42770 | 37.22411 | 6372 ft | 253 kts | 108° |
| 2026-05-04 03:15 | -3.43287 | 37.24111 | 6819 ft | 258 kts | 107° |
| 2026-05-04 03:15 | -3.43758 | 37.25851 | 7291 ft | 262 kts | 104° |
| 2026-05-04 03:15 | -3.44175 | 37.27640 | 7680 ft | 270 kts | 103° |
| 2026-05-04 03:16 | -3.44603 | 37.29509 | 8141 ft | 275 kts | 103° |
| 2026-05-04 03:16 | -3.45030 | 37.31364 | 8733 ft | 275 kts | 103° |
| 2026-05-04 03:16 | -3.45461 | 37.33232 | 9242 ft | 278 kts | 102° |
| 2026-05-04 03:16 | -3.45895 | 37.35112 | 9782 ft | 279 kts | 102° |
| 2026-05-04 03:17 | -3.46334 | 37.37020 | 10177 ft | 287 kts | 102° |
| 2026-05-04 03:17 | -3.46800 | 37.39041 | 10329 ft | 305 kts | 102° |
| 2026-05-04 03:17 | -3.47288 | 37.41152 | 10463 ft | 323 kts | 102° |
| 2026-05-04 03:17 | -3.47810 | 37.43407 | 10605 ft | 340 kts | 102° |
| 2026-05-04 03:18 | -3.48357 | 37.45771 | 10866 ft | 353 kts | 102° |
| 2026-05-04 03:18 | -3.48907 | 37.48151 | 11586 ft | 350 kts | 102° |
| 2026-05-04 03:18 | -3.49454 | 37.50515 | 12144 ft | 353 kts | 102° |
| 2026-05-04 03:18 | -3.50017 | 37.52951 | 12673 ft | 357 kts | 102° |
| 2026-05-04 03:19 | -3.50576 | 37.55371 | 13229 ft | 359 kts | 102° |
| 2026-05-04 03:19 | -3.51138 | 37.57803 | 13759 ft | 362 kts | 102° |
| 2026-05-04 03:19 | -3.51704 | 37.60253 | 14287 ft | 365 kts | 102° |
| 2026-05-04 03:19 | -3.52283 | 37.62764 | 14799 ft | 368 kts | 102° |
| 2026-05-04 03:20 | -3.52856 | 37.65247 | 15299 ft | 371 kts | 102° |
| 2026-05-04 03:20 | -3.53440 | 37.67781 | 15821 ft | 373 kts | 102° |
| 2026-05-04 03:20 | -3.54022 | 37.70309 | 16310 ft | 376 kts | 102° |
| 2026-05-04 03:20 | -3.54613 | 37.72873 | 16792 ft | 379 kts | 102° |
| 2026-05-04 03:21 | -3.55201 | 37.75423 | 17270 ft | 381 kts | 102° |
| 2026-05-04 03:21 | -3.55798 | 37.78014 | 17749 ft | 384 kts | 102° |
| 2026-05-04 03:21 | -3.56405 | 37.80646 | 18196 ft | 387 kts | 102° |
| 2026-05-04 03:21 | -3.57010 | 37.83267 | 18670 ft | 390 kts | 102° |
| 2026-05-04 03:22 | -3.57620 | 37.85913 | 19145 ft | 392 kts | 103° |
| 2026-05-04 03:22 | -3.58232 | 37.88571 | 19589 ft | 395 kts | 103° |
| 2026-05-04 03:22 | -3.58894 | 37.91275 | 20024 ft | 397 kts | 104° |
| 2026-05-04 03:22 | -3.59479 | 37.93998 | 20381 ft | 403 kts | 100° |
| 2026-05-04 03:23 | -3.59965 | 37.96771 | 20737 ft | 407 kts | 100° |
| 2026-05-04 03:23 | -3.60456 | 37.99598 | 21017 ft | 412 kts | 100° |
| 2026-05-04 03:23 | -3.60966 | 38.02434 | 21117 ft | 422 kts | 101° |
| 2026-05-04 03:23 | -3.61151 | 38.03419 | 21130 ft | 426 kts | 101° |
| 2026-05-04 03:24 | -3.62136 | 38.08328 | 21142 ft | 436 kts | 102° |
| 2026-05-04 03:24 | -3.62740 | 38.11254 | 21138 ft | 426 kts | 102° |
| 2026-05-04 03:24 | -3.63337 | 38.14140 | 21135 ft | 418 kts | 102° |
| 2026-05-04 03:24 | -3.63926 | 38.16991 | 21137 ft | 423 kts | 102° |
| 2026-05-04 03:25 | -3.64524 | 38.19886 | 21136 ft | 429 kts | 102° |
| 2026-05-04 03:25 | -3.65125 | 38.22807 | 21133 ft | 428 kts | 102° |
| 2026-05-04 03:25 | -3.65726 | 38.25725 | 21129 ft | 424 kts | 102° |
| 2026-05-04 03:25 | -3.66323 | 38.28628 | 21127 ft | 424 kts | 102° |
| 2026-05-04 03:26 | -3.66916 | 38.31514 | 21128 ft | 427 kts | 102° |
| 2026-05-04 03:26 | -3.67515 | 38.34428 | 21126 ft | 427 kts | 102° |
| 2026-05-04 03:26 | -3.68115 | 38.37349 | 21122 ft | 426 kts | 102° |
| 2026-05-04 03:26 | -3.68711 | 38.40252 | 21118 ft | 426 kts | 102° |
| 2026-05-04 03:27 | -3.69305 | 38.43142 | 21114 ft | 427 kts | 102° |
| 2026-05-04 03:27 | -3.69908 | 38.46083 | 21108 ft | 428 kts | 102° |
| 2026-05-04 03:27 | -3.70505 | 38.48989 | 21105 ft | 427 kts | 102° |
| 2026-05-04 03:27 | -3.71097 | 38.51877 | 21105 ft | 426 kts | 102° |
| 2026-05-04 03:28 | -3.71695 | 38.54789 | 21100 ft | 427 kts | 102° |
| 2026-05-04 03:28 | -3.72290 | 38.57690 | 21093 ft | 428 kts | 102° |
| 2026-05-04 03:28 | -3.72882 | 38.60615 | 21087 ft | 427 kts | 100° |
| 2026-05-04 03:28 | -3.73229 | 38.63565 | 20701 ft | 420 kts | 95° |
| 2026-05-04 03:29 | -3.73382 | 38.66442 | 20035 ft | 420 kts | 93° |
| 2026-05-04 03:29 | -3.73489 | 38.69394 | 19433 ft | 418 kts | 92° |
| 2026-05-04 03:29 | -3.73593 | 38.72268 | 18890 ft | 413 kts | 92° |
| 2026-05-04 03:29 | -3.73707 | 38.75113 | 18327 ft | 410 kts | 93° |
| 2026-05-04 03:30 | -3.73832 | 38.77955 | 17770 ft | 407 kts | 93° |
| 2026-05-04 03:30 | -3.73963 | 38.80780 | 17236 ft | 402 kts | 93° |
| 2026-05-04 03:30 | -3.74095 | 38.83534 | 16702 ft | 399 kts | 93° |
| 2026-05-04 03:30 | -3.74229 | 38.86314 | 16155 ft | 396 kts | 93° |
| 2026-05-04 03:31 | -3.74362 | 38.89039 | 15636 ft | 392 kts | 93° |
| 2026-05-04 03:31 | -3.74493 | 38.91726 | 15085 ft | 389 kts | 93° |
| 2026-05-04 03:31 | -3.74624 | 38.94424 | 14562 ft | 384 kts | 92° |
| 2026-05-04 03:31 | -3.74751 | 38.97045 | 14224 ft | 375 kts | 92° |
| 2026-05-04 03:32 | -3.74877 | 38.99639 | 13891 ft | 366 kts | 92° |
| 2026-05-04 03:32 | -3.74999 | 39.02156 | 13561 ft | 358 kts | 92° |
| 2026-05-04 03:32 | -3.75117 | 39.04595 | 13228 ft | 350 kts | 92° |
| 2026-05-04 03:32 | -3.75233 | 39.07004 | 12958 ft | 340 kts | 93° |
| 2026-05-04 03:33 | -3.75345 | 39.09323 | 12744 ft | 330 kts | 93° |
| 2026-05-04 03:33 | -3.75455 | 39.11598 | 12528 ft | 320 kts | 93° |
| 2026-05-04 03:33 | -3.75560 | 39.13770 | 12317 ft | 310 kts | 93° |
| 2026-05-04 03:33 | -3.75663 | 39.15904 | 12103 ft | 301 kts | 93° |
| 2026-05-04 03:34 | -3.75762 | 39.17949 | 11890 ft | 293 kts | 93° |
| 2026-05-04 03:34 | -3.75859 | 39.19971 | 11650 ft | 285 kts | 93° |
| 2026-05-04 03:34 | -3.75955 | 39.21964 | 11208 ft | 286 kts | 93° |
| 2026-05-04 03:34 | -3.76051 | 39.23954 | 10735 ft | 288 kts | 93° |
| 2026-05-04 03:35 | -3.76147 | 39.25957 | 10284 ft | 289 kts | 93° |
| 2026-05-04 03:35 | -3.76245 | 39.27982 | 9845 ft | 289 kts | 94° |
| 2026-05-04 03:35 | -3.76342 | 39.29987 | 9421 ft | 289 kts | 94° |
| 2026-05-04 03:35 | -3.76438 | 39.31990 | 9046 ft | 287 kts | 94° |
| 2026-05-04 03:36 | -3.76534 | 39.33969 | 8697 ft | 284 kts | 94° |
| 2026-05-04 03:36 | -3.76628 | 39.35938 | 8345 ft | 281 kts | 94° |
| 2026-05-04 03:36 | -3.76722 | 39.37882 | 7995 ft | 279 kts | 94° |
| 2026-05-04 03:36 | -3.76815 | 39.39812 | 7637 ft | 277 kts | 94° |
| 2026-05-04 03:37 | -3.76907 | 39.41734 | 7255 ft | 275 kts | 95° |
| 2026-05-04 03:37 | -3.76998 | 39.43618 | 6894 ft | 274 kts | 95° |
| 2026-05-04 03:37 | -3.77088 | 39.45513 | 6537 ft | 271 kts | 95° |
| 2026-05-04 03:37 | -3.77180 | 39.47407 | 6175 ft | 270 kts | 95° |
| 2026-05-04 03:38 | -3.77270 | 39.49273 | 5779 ft | 270 kts | 95° |
| 2026-05-04 03:38 | -3.77358 | 39.51121 | 5507 ft | 264 kts | 95° |
| 2026-05-04 03:38 | -3.77447 | 39.52961 | 5252 ft | 258 kts | 95° |
| 2026-05-04 03:38 | -3.77531 | 39.54734 | 5003 ft | 253 kts | 96° |
| 2026-05-04 03:39 | -3.77615 | 39.56477 | 4668 ft | 252 kts | 96° |
| 2026-05-04 03:39 | -3.77699 | 39.58242 | 4310 ft | 252 kts | 96° |
| 2026-05-04 03:39 | -3.77781 | 39.59957 | 4099 ft | 247 kts | 96° |
| 2026-05-04 03:39 | -3.77864 | 39.61685 | 4101 ft | 250 kts | 96° |
| 2026-05-04 03:40 | -3.77947 | 39.63443 | 4097 ft | 250 kts | 94° |
| 2026-05-04 03:40 | -3.77686 | 39.65159 | 4146 ft | 254 kts | 80° |
| 2026-05-04 03:40 | -3.77246 | 39.66863 | 4027 ft | 248 kts | 78° |
| 2026-05-04 03:40 | -3.76801 | 39.68503 | 3908 ft | 239 kts | 78° |
| 2026-05-04 03:41 | -3.76368 | 39.70089 | 3791 ft | 235 kts | 79° |
| 2026-05-04 03:41 | -3.76301 | 39.71663 | 3669 ft | 228 kts | 111° |
| 2026-05-04 03:41 | -3.76989 | 39.73089 | 3556 ft | 224 kts | 122° |
| 2026-05-04 03:41 | -3.77908 | 39.74289 | 3433 ft | 208 kts | 148° |
| 2026-05-04 03:42 | -3.79215 | 39.74657 | 3306 ft | 192 kts | 186° |
| 2026-05-04 03:42 | -3.80354 | 39.74046 | 3249 ft | 189 kts | 226° |
| 2026-05-04 03:42 | -3.81178 | 39.72999 | 3246 ft | 190 kts | 229° |
| 2026-05-04 03:42 | -3.81962 | 39.71942 | 3248 ft | 189 kts | 229° |
| 2026-05-04 03:43 | -3.82797 | 39.70948 | 3236 ft | 186 kts | 211° |
| 2026-05-04 03:43 | -3.83910 | 39.70253 | 3249 ft | 185 kts | 206° |
| 2026-05-04 03:43 | -3.85036 | 39.69638 | 3245 ft | 184 kts | 205° |
| 2026-05-04 03:43 | -3.86166 | 39.69023 | 3245 ft | 183 kts | 205° |
| 2026-05-04 03:44 | -3.87294 | 39.68402 | 3183 ft | 186 kts | 205° |
| 2026-05-04 03:44 | -3.88424 | 39.67778 | 3013 ft | 178 kts | 205° |
| 2026-05-04 03:44 | -3.89491 | 39.67192 | 2861 ft | 170 kts | 205° |
| 2026-05-04 03:44 | -3.90527 | 39.66622 | 2683 ft | 168 kts | 205° |
| 2026-05-04 03:45 | -3.91546 | 39.66067 | 2390 ft | 164 kts | 205° |
| 2026-05-04 03:45 | -3.92531 | 39.65530 | 2062 ft | 159 kts | 206° |
| 2026-05-04 03:45 | -3.93481 | 39.64999 | 1922 ft | 155 kts | 207° |
| 2026-05-04 03:45 | -3.94426 | 39.64464 | 1776 ft | 157 kts | 206° |
| 2026-05-04 03:46 | -3.95380 | 39.63940 | 1589 ft | 153 kts | 206° |
| 2026-05-04 03:46 | -3.96304 | 39.63443 | 1319 ft | 147 kts | 206° |
| 2026-05-04 03:46 | -3.97212 | 39.62936 | 1241 ft | 152 kts | 207° |
| 2026-05-04 03:46 | -3.98144 | 39.62437 | 1003 ft | 149 kts | 207° |
| 2026-05-04 03:47 | -3.99047 | 39.61919 | 751 ft | 146 kts | 209° |
| 2026-05-04 03:47 | -3.99952 | 39.61417 | 528 ft | 149 kts | 209° |
| 2026-05-04 03:47 | -4.00850 | 39.60903 | 353 ft | 149 kts | 209° |
| 2026-05-04 03:47 | -4.01749 | 39.60401 | 209 ft | 145 kts | 210° |
| 2026-05-04 03:48 | -4.02559 | 39.59944 | 190 ft | 110 kts | 210° |
| 2026-05-04 03:48 | -4.03089 | 39.59645 | 198 ft | 65 kts | 209° |
| 2026-05-04 03:48 | -4.03358 | 39.59495 | 197 ft | 22 kts | 209° |
| 2026-05-04 03:48 | -4.03393 | 39.59476 | 197 ft | 0 kts | 209° |
| 2026-05-04 03:49 | -4.03402 | 39.59472 | 198 ft | 6 kts | 209° |
| 2026-05-04 03:49 | -4.03472 | 39.59436 | 198 ft | 13 kts | 191° |
| 2026-05-04 03:49 | -4.03560 | 39.59467 | 199 ft | 14 kts | 150° |
| 2026-05-04 03:49 | -4.03620 | 39.59506 | 200 ft | 7 kts | 120° |
| 2026-05-04 03:50 | -4.03602 | 39.59562 | 200 ft | 11 kts | 32° |
| 2026-05-04 03:50 | -4.03513 | 39.59610 | 200 ft | 16 kts | 27° |
| 2026-05-04 03:50 | -4.03401 | 39.59671 | 200 ft | 16 kts | 29° |
| 2026-05-04 03:50 | -4.03334 | 39.59709 | 201 ft | 4 kts | 36° |
| 2026-05-04 03:51 | -4.03326 | 39.59737 | 201 ft | 5 kts | 86° |
| 2026-05-04 03:51 | -4.03324 | 39.59784 | 202 ft | 7 kts | 89° |
| 2026-05-04 03:51 | -4.03324 | 39.59844 | 203 ft | 9 kts | 90° |
| 2026-05-04 03:51 | -4.03324 | 39.59924 | 203 ft | 11 kts | 90° |
| 2026-05-04 03:52 | -4.03319 | 39.59995 | 203 ft | 11 kts | 73° |
| 2026-05-04 03:52 | -4.03275 | 39.60062 | 205 ft | 11 kts | 33° |
| 2026-05-04 03:52 | -4.03198 | 39.60108 | 206 ft | 14 kts | 29° |
| 2026-05-04 03:52 | -4.03116 | 39.60153 | 206 ft | 7 kts | 24° |
| 2026-05-04 03:53 | -4.03072 | 39.60174 | 206 ft | 8 kts | 26° |
| 2026-05-04 03:53 | -4.03040 | 39.60197 | 206 ft | 6 kts | 70° |
| 2026-05-04 03:53 | -4.03043 | 39.60233 | 206 ft | 3 kts | 117° |
| 2026-05-04 03:53 | -4.03055 | 39.60255 | 207 ft | 3 kts | 117° |
| 2026-05-04 03:54 | -4.03063 | 39.60269 | 207 ft | 0 kts | 118° |